sensor_id;sensor_type;location;lat;lon;timestamp;P1;durP1;ratioP1;P2;durP2;ratioP2
35969;SDS011;22448;51.298;6.430;2023-07-16T00:00:15;12.02;;;4.15;;
35969;SDS011;22448;51.298;6.430;2023-07-16T00:02:48;12.05;;;4.22;;
35969;SDS011;22448;51.298;6.430;2023-07-16T00:05:15;8.32;;;3.70;;
35969;SDS011;22448;51.298;6.430;2023-07-16T00:07:42;6.97;;;3.38;;
35969;SDS011;22448;51.298;6.430;2023-07-16T00:10:09;8.50;;;3.83;;
35969;SDS011;22448;51.298;6.430;2023-07-16T00:12:37;12.32;;;3.45;;
35969;SDS011;22448;51.298;6.430;2023-07-16T00:15:05;6.88;;;3.45;;
35969;SDS011;22448;51.298;6.430;2023-07-16T00:17:35;8.20;;;3.80;;
35969;SDS011;22448;51.298;6.430;2023-07-16T00:20:02;6.53;;;3.88;;
35969;SDS011;22448;51.298;6.430;2023-07-16T00:22:31;9.98;;;3.40;;
35969;SDS011;22448;51.298;6.430;2023-07-16T00:24:58;10.88;;;3.92;;
35969;SDS011;22448;51.298;6.430;2023-07-16T00:27:25;8.32;;;3.60;;
35969;SDS011;22448;51.298;6.430;2023-07-16T00:29:52;9.18;;;4.10;;
35969;SDS011;22448;51.298;6.430;2023-07-16T00:32:19;9.32;;;3.65;;
35969;SDS011;22448;51.298;6.430;2023-07-16T00:34:46;7.13;;;3.90;;
35969;SDS011;22448;51.298;6.430;2023-07-16T00:37:13;10.68;;;3.58;;
35969;SDS011;22448;51.298;6.430;2023-07-16T00:39:40;10.52;;;3.55;;
35969;SDS011;22448;51.298;6.430;2023-07-16T00:42:07;14.95;;;3.85;;
35969;SDS011;22448;51.298;6.430;2023-07-16T00:44:35;8.65;;;3.50;;
35969;SDS011;22448;51.298;6.430;2023-07-16T00:47:02;11.23;;;3.63;;
35969;SDS011;22448;51.298;6.430;2023-07-16T00:49:29;7.43;;;3.60;;
35969;SDS011;22448;51.298;6.430;2023-07-16T00:51:58;13.10;;;3.88;;
35969;SDS011;22448;51.298;6.430;2023-07-16T00:54:28;7.28;;;3.22;;
35969;SDS011;22448;51.298;6.430;2023-07-16T00:56:57;10.30;;;3.88;;
35969;SDS011;22448;51.298;6.430;2023-07-16T00:59:25;7.60;;;3.78;;
35969;SDS011;22448;51.298;6.430;2023-07-16T01:01:52;11.75;;;3.90;;
35969;SDS011;22448;51.298;6.430;2023-07-16T01:04:19;7.82;;;4.07;;
35969;SDS011;22448;51.298;6.430;2023-07-16T01:06:47;16.02;;;4.45;;
35969;SDS011;22448;51.298;6.430;2023-07-16T01:11:47;9.73;;;4.22;;
35969;SDS011;22448;51.298;6.430;2023-07-16T01:14:16;9.82;;;4.70;;
35969;SDS011;22448;51.298;6.430;2023-07-16T01:16:44;12.35;;;4.35;;
35969;SDS011;22448;51.298;6.430;2023-07-16T01:19:11;10.05;;;3.97;;
35969;SDS011;22448;51.298;6.430;2023-07-16T01:21:43;6.78;;;3.78;;
35969;SDS011;22448;51.298;6.430;2023-07-16T01:29:51;9.10;;;3.58;;
35969;SDS011;22448;51.298;6.430;2023-07-16T01:32:23;12.23;;;4.63;;
35969;SDS011;22448;51.298;6.430;2023-07-16T01:34:51;6.00;;;3.83;;
35969;SDS011;22448;51.298;6.430;2023-07-16T01:37:19;9.77;;;4.47;;
35969;SDS011;22448;51.298;6.430;2023-07-16T01:39:46;10.63;;;4.18;;
35969;SDS011;22448;51.298;6.430;2023-07-16T01:42:13;9.23;;;4.82;;
35969;SDS011;22448;51.298;6.430;2023-07-16T01:44:41;11.38;;;4.65;;
35969;SDS011;22448;51.298;6.430;2023-07-16T01:49:38;6.20;;;3.70;;
35969;SDS011;22448;51.298;6.430;2023-07-16T01:52:08;9.63;;;4.13;;
35969;SDS011;22448;51.298;6.430;2023-07-16T01:54:36;13.68;;;3.75;;
35969;SDS011;22448;51.298;6.430;2023-07-16T01:57:03;12.98;;;4.22;;
35969;SDS011;22448;51.298;6.430;2023-07-16T01:59:31;12.23;;;3.65;;
35969;SDS011;22448;51.298;6.430;2023-07-16T02:01:58;9.00;;;3.30;;
35969;SDS011;22448;51.298;6.430;2023-07-16T02:04:25;9.05;;;3.33;;
35969;SDS011;22448;51.298;6.430;2023-07-16T02:06:52;10.45;;;3.20;;
35969;SDS011;22448;51.298;6.430;2023-07-16T02:09:19;12.85;;;3.63;;
35969;SDS011;22448;51.298;6.430;2023-07-16T02:11:47;8.38;;;3.88;;
35969;SDS011;22448;51.298;6.430;2023-07-16T02:14:14;9.93;;;3.90;;
35969;SDS011;22448;51.298;6.430;2023-07-16T02:16:42;9.18;;;4.03;;
35969;SDS011;22448;51.298;6.430;2023-07-16T02:19:10;11.27;;;3.95;;
35969;SDS011;22448;51.298;6.430;2023-07-16T02:21:37;11.85;;;3.90;;
35969;SDS011;22448;51.298;6.430;2023-07-16T02:24:04;7.07;;;3.75;;
35969;SDS011;22448;51.298;6.430;2023-07-16T02:26:31;12.02;;;3.55;;
35969;SDS011;22448;51.298;6.430;2023-07-16T02:28:58;14.00;;;3.70;;
35969;SDS011;22448;51.298;6.430;2023-07-16T02:31:26;12.85;;;3.72;;
35969;SDS011;22448;51.298;6.430;2023-07-16T02:33:53;12.75;;;3.40;;
35969;SDS011;22448;51.298;6.430;2023-07-16T02:36:20;7.43;;;3.50;;
35969;SDS011;22448;51.298;6.430;2023-07-16T02:38:48;9.95;;;3.00;;
35969;SDS011;22448;51.298;6.430;2023-07-16T02:41:15;10.38;;;3.50;;
35969;SDS011;22448;51.298;6.430;2023-07-16T02:43:42;11.85;;;3.58;;
35969;SDS011;22448;51.298;6.430;2023-07-16T02:46:12;13.52;;;3.67;;
35969;SDS011;22448;51.298;6.430;2023-07-16T02:48:40;10.90;;;3.55;;
35969;SDS011;22448;51.298;6.430;2023-07-16T02:51:08;16.27;;;3.63;;
35969;SDS011;22448;51.298;6.430;2023-07-16T02:53:35;13.50;;;3.95;;
35969;SDS011;22448;51.298;6.430;2023-07-16T02:56:02;14.60;;;3.33;;
35969;SDS011;22448;51.298;6.430;2023-07-16T02:58:29;14.52;;;3.25;;
35969;SDS011;22448;51.298;6.430;2023-07-16T03:00:56;6.88;;;2.90;;
35969;SDS011;22448;51.298;6.430;2023-07-16T03:03:24;15.82;;;3.40;;
35969;SDS011;22448;51.298;6.430;2023-07-16T03:06:00;10.85;;;3.22;;
35969;SDS011;22448;51.298;6.430;2023-07-16T03:08:28;12.65;;;3.30;;
35969;SDS011;22448;51.298;6.430;2023-07-16T03:10:57;15.52;;;3.47;;
35969;SDS011;22448;51.298;6.430;2023-07-16T03:13:25;12.13;;;3.30;;
35969;SDS011;22448;51.298;6.430;2023-07-16T03:15:52;9.07;;;3.17;;
35969;SDS011;22448;51.298;6.430;2023-07-16T03:18:20;11.85;;;3.60;;
35969;SDS011;22448;51.298;6.430;2023-07-16T03:20:47;14.60;;;3.67;;
35969;SDS011;22448;51.298;6.430;2023-07-16T03:23:14;8.20;;;2.80;;
35969;SDS011;22448;51.298;6.430;2023-07-16T03:25:41;9.20;;;3.13;;
35969;SDS011;22448;51.298;6.430;2023-07-16T03:28:08;13.82;;;4.15;;
35969;SDS011;22448;51.298;6.430;2023-07-16T03:30:35;8.60;;;3.35;;
35969;SDS011;22448;51.298;6.430;2023-07-16T03:33:04;13.38;;;3.83;;
35969;SDS011;22448;51.298;6.430;2023-07-16T03:35:33;13.23;;;3.33;;
35969;SDS011;22448;51.298;6.430;2023-07-16T03:38:00;18.70;;;3.85;;
35969;SDS011;22448;51.298;6.430;2023-07-16T03:40:28;16.33;;;4.00;;
35969;SDS011;22448;51.298;6.430;2023-07-16T03:42:55;14.88;;;3.75;;
35969;SDS011;22448;51.298;6.430;2023-07-16T03:45:23;13.93;;;3.97;;
35969;SDS011;22448;51.298;6.430;2023-07-16T03:47:50;7.70;;;3.40;;
35969;SDS011;22448;51.298;6.430;2023-07-16T03:50:17;22.65;;;3.83;;
35969;SDS011;22448;51.298;6.430;2023-07-16T03:52:44;11.13;;;3.45;;
35969;SDS011;22448;51.298;6.430;2023-07-16T03:55:12;14.98;;;4.32;;
35969;SDS011;22448;51.298;6.430;2023-07-16T03:57:40;15.00;;;4.20;;
35969;SDS011;22448;51.298;6.430;2023-07-16T04:00:08;15.00;;;3.83;;
35969;SDS011;22448;51.298;6.430;2023-07-16T04:02:47;14.27;;;4.25;;
35969;SDS011;22448;51.298;6.430;2023-07-16T04:05:16;13.35;;;4.10;;
35969;SDS011;22448;51.298;6.430;2023-07-16T04:07:46;13.05;;;4.82;;
35969;SDS011;22448;51.298;6.430;2023-07-16T04:10:13;10.82;;;4.00;;
35969;SDS011;22448;51.298;6.430;2023-07-16T04:12:40;10.45;;;4.38;;
35969;SDS011;22448;51.298;6.430;2023-07-16T04:15:08;14.40;;;4.15;;
35969;SDS011;22448;51.298;6.430;2023-07-16T04:17:38;14.43;;;4.47;;
35969;SDS011;22448;51.298;6.430;2023-07-16T04:20:05;19.85;;;4.93;;
35969;SDS011;22448;51.298;6.430;2023-07-16T04:22:33;19.77;;;4.93;;
35969;SDS011;22448;51.298;6.430;2023-07-16T04:25:01;12.57;;;4.22;;
35969;SDS011;22448;51.298;6.430;2023-07-16T04:27:28;19.95;;;4.43;;
35969;SDS011;22448;51.298;6.430;2023-07-16T04:29:55;16.13;;;3.95;;
35969;SDS011;22448;51.298;6.430;2023-07-16T04:32:22;13.13;;;4.25;;
35969;SDS011;22448;51.298;6.430;2023-07-16T04:34:49;18.20;;;4.57;;
35969;SDS011;22448;51.298;6.430;2023-07-16T04:37:16;16.15;;;4.60;;
35969;SDS011;22448;51.298;6.430;2023-07-16T04:39:43;11.27;;;4.03;;
35969;SDS011;22448;51.298;6.430;2023-07-16T04:42:10;14.80;;;4.30;;
35969;SDS011;22448;51.298;6.430;2023-07-16T04:44:37;22.40;;;3.83;;
35969;SDS011;22448;51.298;6.430;2023-07-16T04:47:04;16.75;;;4.22;;
35969;SDS011;22448;51.298;6.430;2023-07-16T04:49:33;22.17;;;4.10;;
35969;SDS011;22448;51.298;6.430;2023-07-16T04:52:01;18.33;;;4.68;;
35969;SDS011;22448;51.298;6.430;2023-07-16T04:54:28;17.70;;;4.47;;
35969;SDS011;22448;51.298;6.430;2023-07-16T04:56:55;15.75;;;3.60;;
35969;SDS011;22448;51.298;6.430;2023-07-16T04:59:22;12.38;;;4.05;;
35969;SDS011;22448;51.298;6.430;2023-07-16T05:01:49;15.60;;;4.20;;
35969;SDS011;22448;51.298;6.430;2023-07-16T05:04:16;15.05;;;4.43;;
35969;SDS011;22448;51.298;6.430;2023-07-16T05:06:44;11.57;;;4.10;;
35969;SDS011;22448;51.298;6.430;2023-07-16T05:09:10;16.90;;;4.28;;
35969;SDS011;22448;51.298;6.430;2023-07-16T05:11:38;13.25;;;3.72;;
35969;SDS011;22448;51.298;6.430;2023-07-16T05:14:05;9.70;;;3.10;;
35969;SDS011;22448;51.298;6.430;2023-07-16T05:16:32;12.18;;;2.95;;
35969;SDS011;22448;51.298;6.430;2023-07-16T05:18:59;12.00;;;3.58;;
35969;SDS011;22448;51.298;6.430;2023-07-16T05:21:26;12.73;;;3.40;;
35969;SDS011;22448;51.298;6.430;2023-07-16T05:23:53;14.80;;;3.50;;
35969;SDS011;22448;51.298;6.430;2023-07-16T05:26:20;10.90;;;3.53;;
35969;SDS011;22448;51.298;6.430;2023-07-16T05:28:47;10.18;;;3.08;;
35969;SDS011;22448;51.298;6.430;2023-07-16T05:31:14;15.73;;;3.60;;
35969;SDS011;22448;51.298;6.430;2023-07-16T05:33:41;14.05;;;4.38;;
35969;SDS011;22448;51.298;6.430;2023-07-16T05:36:08;15.70;;;4.07;;
35969;SDS011;22448;51.298;6.430;2023-07-16T05:38:35;12.60;;;3.42;;
35969;SDS011;22448;51.298;6.430;2023-07-16T05:41:03;13.60;;;4.18;;
35969;SDS011;22448;51.298;6.430;2023-07-16T05:43:31;11.68;;;4.25;;
35969;SDS011;22448;51.298;6.430;2023-07-16T05:45:59;8.95;;;3.50;;
35969;SDS011;22448;51.298;6.430;2023-07-16T05:48:26;10.30;;;4.18;;
35969;SDS011;22448;51.298;6.430;2023-07-16T05:50:53;16.30;;;4.18;;
35969;SDS011;22448;51.298;6.430;2023-07-16T05:53:20;15.27;;;4.43;;
35969;SDS011;22448;51.298;6.430;2023-07-16T05:55:47;13.15;;;4.03;;
35969;SDS011;22448;51.298;6.430;2023-07-16T05:58:16;11.75;;;3.72;;
35969;SDS011;22448;51.298;6.430;2023-07-16T06:00:43;8.80;;;3.50;;
35969;SDS011;22448;51.298;6.430;2023-07-16T06:03:10;12.88;;;3.92;;
35969;SDS011;22448;51.298;6.430;2023-07-16T06:05:37;11.60;;;4.00;;
35969;SDS011;22448;51.298;6.430;2023-07-16T06:08:04;14.30;;;4.05;;
35969;SDS011;22448;51.298;6.430;2023-07-16T06:10:33;15.45;;;4.03;;
35969;SDS011;22448;51.298;6.430;2023-07-16T06:13:00;11.77;;;3.90;;
35969;SDS011;22448;51.298;6.430;2023-07-16T06:15:28;11.85;;;4.22;;
35969;SDS011;22448;51.298;6.430;2023-07-16T06:17:55;8.38;;;3.65;;
35969;SDS011;22448;51.298;6.430;2023-07-16T06:20:22;15.57;;;4.13;;
35969;SDS011;22448;51.298;6.430;2023-07-16T06:22:49;11.15;;;4.28;;
35969;SDS011;22448;51.298;6.430;2023-07-16T06:25:16;11.90;;;4.65;;
35969;SDS011;22448;51.298;6.430;2023-07-16T06:27:43;12.65;;;4.38;;
35969;SDS011;22448;51.298;6.430;2023-07-16T06:30:10;17.85;;;4.47;;
35969;SDS011;22448;51.298;6.430;2023-07-16T06:32:37;10.32;;;3.75;;
35969;SDS011;22448;51.298;6.430;2023-07-16T06:35:04;10.93;;;4.35;;
35969;SDS011;22448;51.298;6.430;2023-07-16T06:37:32;17.80;;;4.72;;
35969;SDS011;22448;51.298;6.430;2023-07-16T06:39:59;11.05;;;4.65;;
35969;SDS011;22448;51.298;6.430;2023-07-16T06:42:26;14.00;;;4.78;;
35969;SDS011;22448;51.298;6.430;2023-07-16T06:44:53;9.38;;;4.05;;
35969;SDS011;22448;51.298;6.430;2023-07-16T06:47:20;11.68;;;4.22;;
35969;SDS011;22448;51.298;6.430;2023-07-16T06:49:47;12.45;;;4.65;;
35969;SDS011;22448;51.298;6.430;2023-07-16T06:52:20;14.20;;;5.28;;
35969;SDS011;22448;51.298;6.430;2023-07-16T06:54:49;18.48;;;5.38;;
35969;SDS011;22448;51.298;6.430;2023-07-16T06:57:15;17.35;;;5.07;;
35969;SDS011;22448;51.298;6.430;2023-07-16T06:59:43;13.95;;;5.10;;
35969;SDS011;22448;51.298;6.430;2023-07-16T07:02:10;16.85;;;5.40;;
35969;SDS011;22448;51.298;6.430;2023-07-16T07:04:38;14.27;;;5.05;;
35969;SDS011;22448;51.298;6.430;2023-07-16T07:07:06;13.00;;;5.28;;
35969;SDS011;22448;51.298;6.430;2023-07-16T07:09:33;12.10;;;5.10;;
35969;SDS011;22448;51.298;6.430;2023-07-16T07:12:00;9.18;;;4.68;;
35969;SDS011;22448;51.298;6.430;2023-07-16T07:14:28;11.75;;;5.50;;
35969;SDS011;22448;51.298;6.430;2023-07-16T07:16:55;12.50;;;5.38;;
35969;SDS011;22448;51.298;6.430;2023-07-16T07:19:22;14.88;;;5.32;;
35969;SDS011;22448;51.298;6.430;2023-07-16T07:21:49;13.80;;;5.63;;
35969;SDS011;22448;51.298;6.430;2023-07-16T07:24:16;10.75;;;5.05;;
35969;SDS011;22448;51.298;6.430;2023-07-16T07:26:43;13.23;;;4.82;;
35969;SDS011;22448;51.298;6.430;2023-07-16T07:29:11;15.32;;;5.72;;
35969;SDS011;22448;51.298;6.430;2023-07-16T07:31:38;13.77;;;5.20;;
35969;SDS011;22448;51.298;6.430;2023-07-16T07:34:05;11.75;;;5.10;;
35969;SDS011;22448;51.298;6.430;2023-07-16T07:36:32;12.05;;;5.30;;
35969;SDS011;22448;51.298;6.430;2023-07-16T07:38:59;21.15;;;6.20;;
35969;SDS011;22448;51.298;6.430;2023-07-16T07:41:26;12.23;;;5.57;;
35969;SDS011;22448;51.298;6.430;2023-07-16T07:43:53;14.32;;;5.68;;
35969;SDS011;22448;51.298;6.430;2023-07-16T07:46:20;20.48;;;5.97;;
35969;SDS011;22448;51.298;6.430;2023-07-16T07:48:47;12.10;;;4.97;;
35969;SDS011;22448;51.298;6.430;2023-07-16T07:51:14;17.63;;;5.65;;
35969;SDS011;22448;51.298;6.430;2023-07-16T07:53:41;15.52;;;6.18;;
35969;SDS011;22448;51.298;6.430;2023-07-16T07:56:08;16.63;;;5.50;;
35969;SDS011;22448;51.298;6.430;2023-07-16T07:58:35;13.30;;;5.80;;
35969;SDS011;22448;51.298;6.430;2023-07-16T08:01:05;12.25;;;5.50;;
35969;SDS011;22448;51.298;6.430;2023-07-16T08:03:34;14.38;;;5.18;;
35969;SDS011;22448;51.298;6.430;2023-07-16T08:06:02;14.10;;;5.28;;
35969;SDS011;22448;51.298;6.430;2023-07-16T08:08:29;14.05;;;5.80;;
35969;SDS011;22448;51.298;6.430;2023-07-16T08:10:56;16.40;;;6.00;;
35969;SDS011;22448;51.298;6.430;2023-07-16T08:13:23;13.15;;;5.55;;
35969;SDS011;22448;51.298;6.430;2023-07-16T08:15:50;11.57;;;5.40;;
35969;SDS011;22448;51.298;6.430;2023-07-16T08:18:17;13.82;;;5.68;;
35969;SDS011;22448;51.298;6.430;2023-07-16T08:20:44;18.17;;;5.65;;
35969;SDS011;22448;51.298;6.430;2023-07-16T08:23:13;18.50;;;5.97;;
35969;SDS011;22448;51.298;6.430;2023-07-16T08:25:40;16.98;;;5.75;;
35969;SDS011;22448;51.298;6.430;2023-07-16T08:28:07;14.25;;;5.75;;
35969;SDS011;22448;51.298;6.430;2023-07-16T08:30:34;19.33;;;6.03;;
35969;SDS011;22448;51.298;6.430;2023-07-16T08:33:01;11.75;;;4.88;;
35969;SDS011;22448;51.298;6.430;2023-07-16T08:35:29;13.82;;;5.13;;
35969;SDS011;22448;51.298;6.430;2023-07-16T08:37:56;10.70;;;4.85;;
35969;SDS011;22448;51.298;6.430;2023-07-16T08:40:23;10.63;;;5.20;;
35969;SDS011;22448;51.298;6.430;2023-07-16T08:42:50;12.55;;;5.13;;
35969;SDS011;22448;51.298;6.430;2023-07-16T08:45:17;19.08;;;5.43;;
35969;SDS011;22448;51.298;6.430;2023-07-16T08:47:48;13.65;;;5.38;;
35969;SDS011;22448;51.298;6.430;2023-07-16T08:50:16;18.02;;;5.75;;
35969;SDS011;22448;51.298;6.430;2023-07-16T08:52:44;13.45;;;5.40;;
35969;SDS011;22448;51.298;6.430;2023-07-16T08:55:12;12.35;;;5.05;;
35969;SDS011;22448;51.298;6.430;2023-07-16T08:57:39;12.05;;;5.20;;
35969;SDS011;22448;51.298;6.430;2023-07-16T09:00:07;12.45;;;5.15;;
35969;SDS011;22448;51.298;6.430;2023-07-16T09:02:35;16.63;;;5.03;;
35969;SDS011;22448;51.298;6.430;2023-07-16T09:05:03;12.98;;;4.82;;
35969;SDS011;22448;51.298;6.430;2023-07-16T09:07:31;16.50;;;5.63;;
35969;SDS011;22448;51.298;6.430;2023-07-16T09:09:58;16.45;;;5.40;;
35969;SDS011;22448;51.298;6.430;2023-07-16T09:12:26;15.05;;;4.85;;
35969;SDS011;22448;51.298;6.430;2023-07-16T09:14:53;15.02;;;5.25;;
35969;SDS011;22448;51.298;6.430;2023-07-16T09:17:24;16.45;;;5.05;;
35969;SDS011;22448;51.298;6.430;2023-07-16T09:19:52;11.90;;;4.60;;
35969;SDS011;22448;51.298;6.430;2023-07-16T09:22:19;12.73;;;5.40;;
35969;SDS011;22448;51.298;6.430;2023-07-16T09:24:47;10.75;;;5.15;;
35969;SDS011;22448;51.298;6.430;2023-07-16T09:27:14;13.30;;;5.10;;
35969;SDS011;22448;51.298;6.430;2023-07-16T09:29:42;13.98;;;5.57;;
35969;SDS011;22448;51.298;6.430;2023-07-16T09:32:09;12.30;;;4.35;;
35969;SDS011;22448;51.298;6.430;2023-07-16T09:34:36;13.43;;;4.57;;
35969;SDS011;22448;51.298;6.430;2023-07-16T09:37:03;14.43;;;5.28;;
35969;SDS011;22448;51.298;6.430;2023-07-16T09:39:31;15.48;;;5.43;;
35969;SDS011;22448;51.298;6.430;2023-07-16T09:41:59;9.45;;;4.78;;
35969;SDS011;22448;51.298;6.430;2023-07-16T09:44:29;11.20;;;4.85;;
35969;SDS011;22448;51.298;6.430;2023-07-16T09:46:56;11.95;;;4.72;;
35969;SDS011;22448;51.298;6.430;2023-07-16T09:49:23;15.25;;;5.13;;
35969;SDS011;22448;51.298;6.430;2023-07-16T09:51:56;11.40;;;4.93;;
35969;SDS011;22448;51.298;6.430;2023-07-16T09:54:24;13.20;;;6.03;;
35969;SDS011;22448;51.298;6.430;2023-07-16T09:56:56;11.13;;;4.65;;
35969;SDS011;22448;51.298;6.430;2023-07-16T09:59:27;13.07;;;5.05;;
35969;SDS011;22448;51.298;6.430;2023-07-16T10:01:57;8.63;;;5.10;;
35969;SDS011;22448;51.298;6.430;2023-07-16T10:04:24;7.80;;;4.70;;
35969;SDS011;22448;51.298;6.430;2023-07-16T10:06:55;18.98;;;5.32;;
35969;SDS011;22448;51.298;6.430;2023-07-16T10:09:58;12.73;;;4.68;;
35969;SDS011;22448;51.298;6.430;2023-07-16T10:12:18;27.60;;;5.55;;
35969;SDS011;22448;51.298;6.430;2023-07-16T10:14:47;13.98;;;5.25;;
35969;SDS011;22448;51.298;6.430;2023-07-16T10:17:16;12.88;;;5.25;;
35969;SDS011;22448;51.298;6.430;2023-07-16T10:19:48;12.90;;;5.22;;
35969;SDS011;22448;51.298;6.430;2023-07-16T10:27:35;12.02;;;5.13;;
35969;SDS011;22448;51.298;6.430;2023-07-16T10:30:04;13.52;;;5.40;;
35969;SDS011;22448;51.298;6.430;2023-07-16T10:32:33;11.60;;;4.78;;
35969;SDS011;22448;51.298;6.430;2023-07-16T10:35:01;14.45;;;4.80;;
35969;SDS011;22448;51.298;6.430;2023-07-16T10:37:31;13.45;;;5.35;;
35969;SDS011;22448;51.298;6.430;2023-07-16T10:39:59;12.65;;;5.15;;
35969;SDS011;22448;51.298;6.430;2023-07-16T10:42:27;9.70;;;4.28;;
35969;SDS011;22448;51.298;6.430;2023-07-16T10:44:55;10.65;;;4.88;;
35969;SDS011;22448;51.298;6.430;2023-07-16T10:47:32;10.73;;;4.60;;
35969;SDS011;22448;51.298;6.430;2023-07-16T10:50:00;9.02;;;4.70;;
35969;SDS011;22448;51.298;6.430;2023-07-16T10:52:34;10.75;;;4.68;;
35969;SDS011;22448;51.298;6.430;2023-07-16T10:55:02;10.20;;;4.45;;
35969;SDS011;22448;51.298;6.430;2023-07-16T10:57:30;11.40;;;4.30;;
35969;SDS011;22448;51.298;6.430;2023-07-16T10:59:57;9.40;;;4.50;;
35969;SDS011;22448;51.298;6.430;2023-07-16T11:02:25;8.50;;;4.10;;
35969;SDS011;22448;51.298;6.430;2023-07-16T11:04:53;11.77;;;4.43;;
35969;SDS011;22448;51.298;6.430;2023-07-16T11:07:20;10.00;;;4.38;;
35969;SDS011;22448;51.298;6.430;2023-07-16T11:09:49;14.25;;;3.92;;
35969;SDS011;22448;51.298;6.430;2023-07-16T11:12:18;15.27;;;4.80;;
35969;SDS011;22448;51.298;6.430;2023-07-16T11:14:48;8.00;;;4.25;;
35969;SDS011;22448;51.298;6.430;2023-07-16T11:17:23;10.15;;;4.82;;
35969;SDS011;22448;51.298;6.430;2023-07-16T11:19:52;9.40;;;4.30;;
35969;SDS011;22448;51.298;6.430;2023-07-16T11:22:20;10.00;;;4.18;;
35969;SDS011;22448;51.298;6.430;2023-07-16T11:24:52;12.43;;;4.43;;
35969;SDS011;22448;51.298;6.430;2023-07-16T11:29:48;13.85;;;4.78;;
35969;SDS011;22448;51.298;6.430;2023-07-16T11:34:58;12.35;;;4.25;;
35969;SDS011;22448;51.298;6.430;2023-07-16T11:37:26;10.27;;;4.18;;
35969;SDS011;22448;51.298;6.430;2023-07-16T11:39:55;12.07;;;4.07;;
35969;SDS011;22448;51.298;6.430;2023-07-16T11:42:27;11.18;;;4.22;;
35969;SDS011;22448;51.298;6.430;2023-07-16T11:44:58;11.93;;;4.15;;
35969;SDS011;22448;51.298;6.430;2023-07-16T11:47:26;9.77;;;4.15;;
35969;SDS011;22448;51.298;6.430;2023-07-16T11:49:54;10.63;;;4.18;;
35969;SDS011;22448;51.298;6.430;2023-07-16T11:52:26;12.52;;;4.72;;
35969;SDS011;22448;51.298;6.430;2023-07-16T11:54:54;12.88;;;3.90;;
35969;SDS011;22448;51.298;6.430;2023-07-16T11:57:22;8.43;;;3.70;;
35969;SDS011;22448;51.298;6.430;2023-07-16T11:59:50;7.55;;;3.72;;
35969;SDS011;22448;51.298;6.430;2023-07-16T12:02:17;12.32;;;4.28;;
35969;SDS011;22448;51.298;6.430;2023-07-16T12:04:44;9.43;;;3.75;;
35969;SDS011;22448;51.298;6.430;2023-07-16T12:07:11;10.48;;;4.28;;
35969;SDS011;22448;51.298;6.430;2023-07-16T12:09:38;11.77;;;4.28;;
35969;SDS011;22448;51.298;6.430;2023-07-16T12:12:06;12.23;;;3.97;;
35969;SDS011;22448;51.298;6.430;2023-07-16T12:14:33;5.97;;;3.55;;
35969;SDS011;22448;51.298;6.430;2023-07-16T12:17:00;11.48;;;4.03;;
35969;SDS011;22448;51.298;6.430;2023-07-16T12:19:27;7.45;;;3.53;;
35969;SDS011;22448;51.298;6.430;2023-07-16T12:21:55;12.15;;;4.10;;
35969;SDS011;22448;51.298;6.430;2023-07-16T12:24:25;9.55;;;4.05;;
35969;SDS011;22448;51.298;6.430;2023-07-16T12:26:52;7.88;;;3.63;;
35969;SDS011;22448;51.298;6.430;2023-07-16T12:29:19;6.28;;;3.65;;
35969;SDS011;22448;51.298;6.430;2023-07-16T12:31:45;12.02;;;3.72;;
35969;SDS011;22448;51.298;6.430;2023-07-16T12:34:13;9.77;;;4.45;;
35969;SDS011;22448;51.298;6.430;2023-07-16T12:36:40;10.95;;;3.47;;
35969;SDS011;22448;51.298;6.430;2023-07-16T12:39:07;9.45;;;3.97;;
35969;SDS011;22448;51.298;6.430;2023-07-16T12:41:34;10.10;;;4.10;;
35969;SDS011;22448;51.298;6.430;2023-07-16T12:44:01;8.15;;;3.35;;
35969;SDS011;22448;51.298;6.430;2023-07-16T12:46:28;6.32;;;3.78;;
35969;SDS011;22448;51.298;6.430;2023-07-16T12:48:55;6.97;;;3.58;;
35969;SDS011;22448;51.298;6.430;2023-07-16T12:51:22;7.88;;;4.20;;
35969;SDS011;22448;51.298;6.430;2023-07-16T12:53:49;16.42;;;3.70;;
35969;SDS011;22448;51.298;6.430;2023-07-16T12:56:16;8.73;;;3.58;;
35969;SDS011;22448;51.298;6.430;2023-07-16T12:58:44;8.90;;;3.45;;
35969;SDS011;22448;51.298;6.430;2023-07-16T13:01:11;12.38;;;3.53;;
35969;SDS011;22448;51.298;6.430;2023-07-16T13:03:38;9.60;;;3.75;;
35969;SDS011;22448;51.298;6.430;2023-07-16T13:06:05;6.43;;;3.05;;
35969;SDS011;22448;51.298;6.430;2023-07-16T13:08:32;10.93;;;3.30;;
35969;SDS011;22448;51.298;6.430;2023-07-16T13:10:59;11.80;;;3.30;;
35969;SDS011;22448;51.298;6.430;2023-07-16T13:13:27;10.15;;;3.35;;
35969;SDS011;22448;51.298;6.430;2023-07-16T13:15:54;6.25;;;3.10;;
35969;SDS011;22448;51.298;6.430;2023-07-16T13:18:21;8.68;;;3.30;;
35969;SDS011;22448;51.298;6.430;2023-07-16T13:20:48;7.25;;;2.97;;
35969;SDS011;22448;51.298;6.430;2023-07-16T13:23:15;7.43;;;2.83;;
35969;SDS011;22448;51.298;6.430;2023-07-16T13:25:42;9.13;;;3.42;;
35969;SDS011;22448;51.298;6.430;2023-07-16T13:28:10;9.10;;;3.25;;
35969;SDS011;22448;51.298;6.430;2023-07-16T13:30:37;5.55;;;3.15;;
35969;SDS011;22448;51.298;6.430;2023-07-16T13:33:04;8.63;;;2.92;;
35969;SDS011;22448;51.298;6.430;2023-07-16T13:35:31;5.47;;;2.65;;
35969;SDS011;22448;51.298;6.430;2023-07-16T13:37:58;7.70;;;2.95;;
35969;SDS011;22448;51.298;6.430;2023-07-16T13:40:25;7.10;;;2.78;;
35969;SDS011;22448;51.298;6.430;2023-07-16T13:42:51;6.82;;;2.95;;
35969;SDS011;22448;51.298;6.430;2023-07-16T13:45:19;11.65;;;2.92;;
35969;SDS011;22448;51.298;6.430;2023-07-16T13:47:46;12.93;;;3.00;;
35969;SDS011;22448;51.298;6.430;2023-07-16T13:50:14;9.48;;;3.15;;
35969;SDS011;22448;51.298;6.430;2023-07-16T13:52:41;10.95;;;3.33;;
35969;SDS011;22448;51.298;6.430;2023-07-16T13:55:08;6.07;;;2.35;;
35969;SDS011;22448;51.298;6.430;2023-07-16T13:57:35;6.03;;;2.88;;
35969;SDS011;22448;51.298;6.430;2023-07-16T14:00:02;37.38;;;3.83;;
35969;SDS011;22448;51.298;6.430;2023-07-16T14:02:31;9.18;;;3.67;;
35969;SDS011;22448;51.298;6.430;2023-07-16T14:04:58;16.67;;;3.30;;
35969;SDS011;22448;51.298;6.430;2023-07-16T14:07:25;27.75;;;3.15;;
35969;SDS011;22448;51.298;6.430;2023-07-16T14:09:52;12.55;;;3.30;;
35969;SDS011;22448;51.298;6.430;2023-07-16T14:12:20;9.20;;;2.80;;
35969;SDS011;22448;51.298;6.430;2023-07-16T14:14:47;6.72;;;3.15;;
35969;SDS011;22448;51.298;6.430;2023-07-16T14:17:14;5.93;;;2.90;;
35969;SDS011;22448;51.298;6.430;2023-07-16T14:19:42;8.77;;;3.38;;
35969;SDS011;22448;51.298;6.430;2023-07-16T14:22:09;7.22;;;3.08;;
35969;SDS011;22448;51.298;6.430;2023-07-16T14:24:39;6.63;;;3.45;;
35969;SDS011;22448;51.298;6.430;2023-07-16T14:27:06;9.70;;;2.85;;
35969;SDS011;22448;51.298;6.430;2023-07-16T14:29:34;9.38;;;3.15;;
35969;SDS011;22448;51.298;6.430;2023-07-16T14:32:13;12.07;;;3.13;;
35969;SDS011;22448;51.298;6.430;2023-07-16T14:34:40;8.80;;;3.15;;
35969;SDS011;22448;51.298;6.430;2023-07-16T14:37:07;8.82;;;3.28;;
35969;SDS011;22448;51.298;6.430;2023-07-16T14:39:34;11.43;;;3.60;;
35969;SDS011;22448;51.298;6.430;2023-07-16T14:42:01;7.85;;;2.53;;
35969;SDS011;22448;51.298;6.430;2023-07-16T14:44:30;10.07;;;3.95;;
35969;SDS011;22448;51.298;6.430;2023-07-16T14:46:57;9.70;;;3.33;;
35969;SDS011;22448;51.298;6.430;2023-07-16T14:49:24;8.75;;;3.40;;
35969;SDS011;22448;51.298;6.430;2023-07-16T14:51:51;8.25;;;3.80;;
35969;SDS011;22448;51.298;6.430;2023-07-16T14:54:18;6.40;;;3.63;;
35969;SDS011;22448;51.298;6.430;2023-07-16T14:56:45;8.07;;;3.58;;
35969;SDS011;22448;51.298;6.430;2023-07-16T14:59:12;10.48;;;3.97;;
35969;SDS011;22448;51.298;6.430;2023-07-16T15:01:39;9.63;;;4.20;;